createdAt,value
2019-04-16T00:00:29.459Z,4.97
2019-04-16T00:01:29.473Z,4.95
2019-04-16T00:02:29.487Z,4.90
2019-04-16T00:03:29.501Z,4.84
2019-04-16T00:04:29.511Z,4.82
2019-04-16T00:05:29.530Z,4.89
2019-04-16T00:06:29.540Z,4.86
2019-04-16T00:07:29.553Z,4.84
2019-04-16T00:08:29.567Z,4.86
2019-04-16T00:09:29.582Z,4.75
2019-04-16T00:10:29.596Z,4.78
2019-04-16T00:11:29.609Z,4.70
2019-04-16T00:12:29.623Z,4.76
2019-04-16T00:13:29.639Z,4.75
2019-04-16T00:14:29.651Z,4.71
2019-04-16T00:15:29.661Z,4.71
2019-04-16T00:16:29.678Z,4.60
2019-04-16T00:17:29.691Z,4.58
2019-04-16T00:18:29.706Z,4.58
2019-04-16T00:19:29.718Z,4.64
2019-04-16T00:20:29.732Z,4.61
2019-04-16T00:21:29.745Z,4.60
2019-04-16T00:22:29.761Z,4.58
2019-04-16T00:23:29.774Z,4.49
2019-04-16T00:24:29.789Z,4.56
2019-04-16T00:25:29.798Z,4.49
2019-04-16T00:26:29.832Z,4.50
2019-04-16T00:27:29.897Z,4.46
2019-04-16T00:28:30.680Z,4.46
2019-04-16T00:29:32.608Z,4.45
2019-04-16T00:30:29.895Z,4.46
2019-04-16T00:31:29.961Z,4.43
2019-04-16T00:32:29.958Z,4.42
2019-04-16T00:33:29.946Z,4.43
2019-04-16T00:34:29.951Z,4.42
2019-04-16T00:35:29.955Z,4.32
2019-04-16T00:36:29.961Z,4.42
2019-04-16T00:37:29.964Z,4.28
2019-04-16T00:38:40.072Z,4.31
2019-04-16T00:39:29.992Z,4.36
2019-04-16T00:40:30.006Z,4.36
2019-04-16T00:41:30.020Z,4.25
2019-04-16T00:42:30.031Z,4.25
2019-04-16T00:43:30.044Z,4.18
2019-04-16T00:44:30.060Z,4.21
2019-04-16T00:45:30.070Z,4.36
2019-04-16T00:46:30.088Z,4.32
2019-04-16T00:47:30.103Z,4.24
2019-04-16T00:48:30.109Z,4.34
2019-04-16T00:49:30.126Z,4.31
2019-04-16T00:50:30.139Z,4.24
2019-04-16T00:51:30.152Z,4.30
2019-04-16T00:52:30.165Z,4.14
2019-04-16T00:53:30.181Z,4.25
2019-04-16T00:54:30.195Z,4.27
2019-04-16T00:55:30.205Z,4.18
2019-04-16T00:56:30.221Z,4.31
2019-04-16T00:57:30.234Z,4.25
2019-04-16T00:58:30.246Z,4.27
2019-04-16T00:59:30.259Z,4.25
2019-04-16T01:00:30.584Z,4.24
2019-04-16T01:01:30.286Z,4.22
2019-04-16T01:02:30.300Z,4.25
2019-04-16T01:03:30.315Z,4.22
2019-04-16T01:04:30.327Z,4.28
2019-04-16T01:05:35.089Z,4.22
2019-04-16T01:06:30.355Z,4.25
2019-04-16T01:07:30.369Z,4.13
2019-04-16T01:08:30.381Z,4.18
2019-04-16T01:09:30.392Z,4.20
2019-04-16T01:10:30.406Z,4.09
2019-04-16T01:11:30.419Z,4.13
2019-04-16T01:12:30.441Z,4.07
2019-04-16T01:13:30.447Z,4.21
2019-04-16T01:14:30.460Z,4.06
2019-04-16T01:15:32.146Z,4.16
2019-04-16T01:16:32.724Z,4.12
2019-04-16T01:17:30.500Z,4.12
2019-04-16T01:18:30.511Z,4.02
2019-04-16T01:19:30.526Z,4.00
2019-04-16T01:20:30.539Z,4.00
2019-04-16T01:21:30.556Z,4.06
2019-04-16T01:22:30.569Z,4.03
2019-04-16T01:23:30.578Z,4.10
2019-04-16T01:24:30.592Z,4.14
2019-04-16T01:25:30.612Z,4.00
2019-04-16T01:26:30.620Z,4.04
2019-04-16T01:27:30.630Z,4.02
2019-04-16T01:28:31.989Z,4.04
2019-04-16T01:29:33.580Z,3.95
2019-04-16T01:30:30.674Z,3.99
2019-04-16T01:31:30.684Z,3.95
2019-04-16T01:32:30.700Z,3.92
2019-04-16T01:33:30.727Z,3.92
2019-04-16T01:34:30.731Z,3.92
2019-04-16T01:35:30.736Z,3.89
2019-04-16T01:36:30.750Z,3.91
2019-04-16T01:37:30.764Z,3.95
2019-04-16T01:38:30.777Z,3.85
2019-04-16T01:39:30.788Z,3.94
2019-04-16T01:40:30.803Z,3.92
2019-04-16T01:41:30.818Z,3.89
2019-04-16T01:42:30.828Z,3.86
2019-04-16T01:43:30.843Z,3.89
2019-04-16T01:44:30.853Z,3.89
2019-04-16T01:45:30.868Z,3.89
2019-04-16T01:46:32.829Z,3.88
2019-04-16T01:47:35.674Z,3.95
2019-04-16T01:48:30.905Z,3.85
2019-04-16T01:49:30.920Z,3.89
2019-04-16T01:50:30.933Z,3.86
2019-04-16T01:51:30.946Z,3.91
2019-04-16T01:52:30.958Z,3.91
2019-04-16T01:53:30.972Z,3.91
2019-04-16T01:54:30.986Z,3.86
2019-04-16T01:55:31.001Z,3.84
2019-04-16T01:56:31.012Z,3.78
2019-04-16T01:57:31.358Z,3.76
2019-04-16T01:58:33.586Z,3.77
2019-04-16T01:59:35.591Z,3.76
2019-04-16T02:00:31.068Z,3.66
2019-04-16T02:01:31.079Z,3.67
2019-04-16T02:02:31.089Z,3.82
2019-04-16T02:03:31.100Z,3.76
2019-04-16T02:04:31.116Z,3.74
2019-04-16T02:05:31.145Z,3.68
2019-04-16T02:06:31.141Z,3.76
2019-04-16T02:07:31.154Z,3.71
2019-04-16T02:08:31.743Z,3.73
2019-04-16T02:09:34.175Z,3.76
2019-04-16T02:10:31.192Z,3.59
2019-04-16T02:11:31.205Z,3.64
2019-04-16T02:12:31.216Z,3.64
2019-04-16T02:13:31.231Z,3.68
2019-04-16T02:14:31.247Z,3.66
2019-04-16T02:15:31.265Z,3.61
2019-04-16T02:16:31.269Z,3.58
2019-04-16T02:17:31.283Z,3.67
2019-04-16T02:18:31.298Z,3.56
2019-04-16T02:19:32.882Z,3.53
2019-04-16T02:20:31.320Z,3.53
2019-04-16T02:21:31.333Z,3.46
2019-04-16T02:22:31.349Z,3.53
2019-04-16T02:23:31.360Z,3.46
2019-04-16T02:24:31.373Z,3.49
2019-04-16T02:25:31.384Z,3.41
2019-04-16T02:26:31.399Z,3.49
2019-04-16T02:27:31.411Z,3.48
2019-04-16T02:28:31.424Z,3.52
2019-04-16T02:29:31.437Z,3.40
2019-04-16T02:30:37.705Z,3.41
2019-04-16T02:31:31.464Z,3.46
2019-04-16T02:32:31.477Z,3.37
2019-04-16T02:33:31.490Z,3.41
2019-04-16T02:34:31.505Z,3.40
2019-04-16T02:35:31.513Z,3.34
2019-04-16T02:36:31.525Z,3.36
2019-04-16T02:37:35.401Z,3.26
2019-04-16T02:38:31.552Z,3.30
2019-04-16T02:39:47.373Z,3.27
2019-04-16T02:40:31.577Z,3.24
2019-04-16T02:41:31.592Z,3.31
2019-04-16T02:42:32.207Z,3.30
2019-04-16T02:43:31.616Z,3.27
2019-04-16T02:44:31.628Z,3.24
2019-04-16T02:45:31.679Z,3.33
2019-04-16T02:46:32.761Z,3.27
2019-04-16T02:47:31.726Z,3.21
2019-04-16T02:48:31.724Z,3.24
2019-04-16T02:49:31.713Z,3.22
2019-04-16T02:50:32.251Z,3.21
2019-04-16T02:51:31.779Z,3.08
2019-04-16T02:52:31.787Z,3.11
2019-04-16T02:53:31.786Z,3.19
2019-04-16T02:54:33.896Z,3.11
2019-04-16T02:55:31.781Z,3.13
2019-04-16T02:56:31.780Z,3.05
2019-04-16T02:57:31.791Z,3.12
2019-04-16T02:58:34.524Z,3.13
2019-04-16T02:59:31.813Z,3.06
2019-04-16T03:00:31.831Z,3.06
2019-04-16T03:01:31.841Z,2.98
2019-04-16T03:02:31.858Z,3.03
2019-04-16T03:03:31.865Z,3.03
2019-04-16T03:04:31.881Z,3.00
2019-04-16T03:05:31.892Z,3.01
2019-04-16T03:06:32.533Z,3.03
2019-04-16T03:07:32.784Z,3.00
2019-04-16T03:08:33.426Z,2.94
2019-04-16T03:09:31.942Z,3.03
2019-04-16T03:10:31.956Z,3.03
2019-04-16T03:11:31.971Z,3.08
2019-04-16T03:12:31.981Z,2.95
2019-04-16T03:13:31.994Z,2.93
2019-04-16T03:14:32.006Z,2.93
2019-04-16T03:15:33.683Z,2.95
2019-04-16T03:16:32.033Z,2.95
2019-04-16T03:17:32.045Z,2.94
2019-04-16T03:18:32.055Z,2.97
2019-04-16T03:19:32.064Z,2.93
2019-04-16T03:20:32.079Z,2.90
2019-04-16T03:21:32.091Z,2.93
2019-04-16T03:22:33.404Z,2.95
2019-04-16T03:23:36.813Z,2.94
2019-04-16T03:24:32.135Z,2.87
2019-04-16T03:25:32.142Z,2.82
2019-04-16T03:26:32.153Z,2.82
2019-04-16T03:27:32.169Z,2.83
2019-04-16T03:28:32.180Z,2.88
2019-04-16T03:29:32.190Z,2.90
2019-04-16T03:30:40.263Z,2.87
2019-04-16T03:31:32.218Z,2.82
2019-04-16T03:32:35.443Z,2.82
2019-04-16T03:33:32.241Z,2.79
2019-04-16T03:34:32.263Z,2.76
2019-04-16T03:35:32.262Z,2.77
2019-04-16T03:36:32.281Z,2.75
2019-04-16T03:37:32.956Z,2.72
2019-04-16T03:38:36.737Z,2.72
2019-04-16T03:39:32.316Z,2.75
2019-04-16T03:40:32.327Z,2.70
2019-04-16T03:41:32.349Z,2.73
2019-04-16T03:42:32.352Z,2.73
2019-04-16T03:43:33.058Z,2.70
2019-04-16T03:44:33.512Z,2.69
2019-04-16T03:45:32.390Z,2.69
2019-04-16T03:46:32.401Z,2.62
2019-04-16T03:47:32.414Z,2.64
2019-04-16T03:48:32.426Z,2.69
2019-04-16T03:49:32.440Z,2.69
2019-04-16T03:50:32.461Z,2.59
2019-04-16T03:51:32.577Z,2.65
2019-04-16T03:52:32.474Z,2.61
2019-04-16T03:53:32.487Z,2.55
2019-04-16T03:54:32.497Z,2.47
2019-04-16T03:55:32.513Z,2.55
2019-04-16T03:56:32.522Z,2.58
2019-04-16T03:57:33.132Z,2.54
2019-04-16T03:58:35.358Z,2.43
2019-04-16T03:59:32.563Z,2.46
2019-04-16T04:00:32.574Z,2.51
2019-04-16T04:01:32.585Z,2.46
2019-04-16T04:02:32.597Z,2.50
2019-04-16T04:03:32.605Z,2.52
2019-04-16T04:04:32.621Z,2.51
2019-04-16T04:05:34.935Z,2.37
2019-04-16T04:06:32.645Z,2.41
2019-04-16T04:07:32.658Z,2.40
2019-04-16T04:08:32.670Z,2.39
2019-04-16T04:09:32.682Z,2.50
2019-04-16T04:10:36.754Z,2.40
2019-04-16T04:11:32.706Z,2.43
2019-04-16T04:12:32.718Z,2.37
2019-04-16T04:13:32.731Z,2.39
2019-04-16T04:14:32.745Z,2.36
2019-04-16T04:15:32.757Z,2.40
2019-04-16T04:16:33.549Z,2.36
2019-04-16T04:17:35.591Z,2.39
2019-04-16T04:18:32.792Z,2.36
2019-04-16T04:19:32.805Z,2.30
2019-04-16T04:20:32.816Z,2.33
2019-04-16T04:21:32.828Z,2.34
2019-04-16T04:22:32.841Z,2.26
2019-04-16T04:23:32.851Z,2.36
2019-04-16T04:24:32.869Z,2.39
2019-04-16T04:25:35.992Z,2.34
2019-04-16T04:26:32.892Z,2.34
2019-04-16T04:27:32.900Z,2.39
2019-04-16T04:28:32.911Z,2.33
2019-04-16T04:29:32.928Z,2.34
2019-04-16T04:30:32.937Z,2.37
2019-04-16T04:31:33.085Z,2.34
2019-04-16T04:32:35.473Z,2.36
2019-04-16T04:33:32.973Z,2.33
2019-04-16T04:34:32.986Z,2.46
2019-04-16T04:35:32.996Z,2.44
2019-04-16T04:36:33.010Z,2.34
2019-04-16T04:37:33.022Z,2.36
2019-04-16T04:38:33.676Z,2.36
2019-04-16T04:39:33.047Z,2.34
2019-04-16T04:40:43.921Z,2.40
2019-04-16T04:41:33.072Z,2.37
2019-04-16T04:42:33.083Z,2.30
2019-04-16T04:43:33.097Z,2.37
2019-04-16T04:44:33.643Z,2.36
2019-04-16T04:45:33.122Z,2.39
2019-04-16T04:46:33.132Z,2.44
2019-04-16T04:47:33.144Z,2.41
2019-04-16T04:48:33.158Z,2.39
2019-04-16T04:49:33.167Z,2.40
2019-04-16T04:50:35.404Z,2.34
2019-04-16T04:51:33.192Z,2.39
2019-04-16T04:52:33.206Z,2.36
2019-04-16T04:53:33.218Z,2.43
2019-04-16T04:54:33.230Z,2.37
2019-04-16T04:55:33.241Z,2.50
2019-04-16T04:56:33.264Z,2.37
2019-04-16T04:57:33.267Z,2.43
2019-04-16T04:58:34.078Z,2.54
2019-04-16T04:59:36.489Z,2.50
2019-04-16T05:00:33.300Z,2.51
2019-04-16T05:01:33.314Z,2.46
2019-04-16T05:02:33.326Z,2.61
2019-04-16T05:03:33.337Z,2.54
2019-04-16T05:04:33.350Z,2.61
2019-04-16T05:05:33.365Z,2.61
2019-04-16T05:06:33.375Z,2.62
2019-04-16T05:07:33.389Z,2.61
2019-04-16T05:08:33.400Z,2.64
2019-04-16T05:09:36.560Z,2.64
2019-04-16T05:10:36.494Z,2.72
2019-04-16T05:11:33.436Z,2.72
2019-04-16T05:12:33.456Z,2.69
2019-04-16T05:13:33.486Z,2.73
2019-04-16T05:14:33.544Z,2.75
2019-04-16T05:15:33.545Z,2.69
2019-04-16T05:16:34.514Z,2.75
2019-04-16T05:17:35.437Z,2.77
2019-04-16T05:18:33.556Z,2.82
2019-04-16T05:19:33.598Z,2.83
2019-04-16T05:20:33.609Z,2.85
2019-04-16T05:21:33.606Z,2.83
2019-04-16T05:22:33.625Z,2.88
2019-04-16T05:23:33.596Z,2.83
2019-04-16T05:24:33.598Z,2.94
2019-04-16T05:25:34.400Z,2.98
2019-04-16T05:26:36.084Z,2.98
2019-04-16T05:27:33.636Z,2.82
2019-04-16T05:28:33.650Z,2.97
2019-04-16T05:29:33.661Z,2.98
2019-04-16T05:30:33.674Z,2.94
2019-04-16T05:31:33.688Z,3.03
2019-04-16T05:32:34.287Z,2.95
2019-04-16T05:33:34.481Z,2.98
2019-04-16T05:34:34.571Z,3.06
2019-04-16T05:35:33.740Z,3.06
2019-04-16T05:36:33.749Z,3.16
2019-04-16T05:37:33.763Z,3.08
2019-04-16T05:38:33.781Z,3.13
2019-04-16T05:39:33.790Z,3.27
2019-04-16T05:40:35.180Z,3.24
2019-04-16T05:41:33.814Z,3.16
2019-04-16T05:42:33.829Z,3.29
2019-04-16T05:43:33.841Z,3.27
2019-04-16T05:44:34.199Z,3.27
2019-04-16T05:45:34.513Z,3.31
2019-04-16T05:46:33.877Z,3.33
2019-04-16T05:47:33.890Z,3.43
2019-04-16T05:48:33.901Z,3.45
2019-04-16T05:49:33.915Z,3.41
2019-04-16T05:50:33.930Z,3.49
2019-04-16T05:51:33.942Z,3.50
2019-04-16T05:52:35.699Z,3.52
2019-04-16T05:53:33.971Z,3.53
2019-04-16T05:54:33.981Z,3.48
2019-04-16T05:55:33.992Z,3.63
2019-04-16T05:56:34.009Z,3.66
2019-04-16T05:57:34.017Z,3.71
2019-04-16T05:58:34.030Z,3.70
2019-04-16T05:59:34.547Z,3.81
2019-04-16T06:00:34.058Z,3.77
2019-04-16T06:01:34.073Z,3.89
2019-04-16T06:02:34.084Z,3.94
2019-04-16T06:03:34.098Z,3.89
2019-04-16T06:04:34.109Z,4.03
2019-04-16T06:05:34.126Z,4.04
2019-04-16T06:06:34.145Z,4.02
2019-04-16T06:07:37.752Z,4.13
2019-04-16T06:08:34.163Z,4.22
2019-04-16T06:09:34.177Z,4.20
2019-04-16T06:10:34.190Z,4.25
2019-04-16T06:11:36.445Z,4.21
2019-04-16T06:12:34.217Z,4.22
2019-04-16T06:13:34.232Z,4.40
2019-04-16T06:14:34.246Z,4.49
2019-04-16T06:15:35.806Z,4.56
2019-04-16T06:16:34.274Z,4.58
2019-04-16T06:17:34.287Z,4.76
2019-04-16T06:18:37.342Z,4.79
2019-04-16T06:19:34.312Z,4.84
2019-04-16T06:20:34.326Z,4.84
2019-04-16T06:21:34.342Z,4.97
2019-04-16T06:22:34.354Z,4.97
2019-04-16T06:23:34.377Z,5.04
2019-04-16T06:24:35.765Z,5.12
2019-04-16T06:25:34.397Z,5.18
2019-04-16T06:26:34.411Z,5.22
2019-04-16T06:27:34.423Z,5.36
2019-04-16T06:28:34.440Z,5.52
2019-04-16T06:29:34.453Z,5.67
2019-04-16T06:30:34.471Z,5.76
2019-04-16T06:31:36.254Z,5.84
2019-04-16T06:32:34.499Z,5.99
2019-04-16T06:33:34.573Z,6.16
2019-04-16T06:34:34.525Z,6.44
2019-04-16T06:35:42.970Z,6.74
2019-04-16T06:36:34.557Z,6.93
2019-04-16T06:37:34.576Z,7.14
2019-04-16T06:38:34.591Z,7.25
2019-04-16T06:39:34.605Z,7.43
2019-04-16T06:40:34.621Z,7.61
2019-04-16T06:41:41.382Z,7.72
2019-04-16T06:42:34.651Z,8.05
2019-04-16T06:43:34.669Z,8.18
2019-04-16T06:44:35.070Z,8.39
2019-04-16T06:45:37.138Z,8.57
2019-04-16T06:46:39.381Z,8.81
2019-04-16T06:47:34.735Z,9.00
2019-04-16T06:48:35.331Z,9.24
2019-04-16T06:49:34.768Z,9.48
2019-04-16T06:50:39.464Z,9.72
2019-04-16T06:51:34.800Z,9.91
2019-04-16T06:52:34.816Z,10.10
2019-04-16T06:53:34.843Z,10.27
2019-04-16T06:54:34.852Z,10.33
2019-04-16T06:55:36.096Z,10.55
2019-04-16T06:56:37.416Z,10.76
2019-04-16T06:57:34.906Z,10.86
2019-04-16T06:58:50.218Z,11.04
2019-04-16T06:59:34.940Z,11.31
2019-04-16T07:00:35.297Z,11.35
2019-04-16T07:01:37.324Z,11.48
2019-04-16T07:02:37.463Z,11.60
2019-04-16T07:03:35.011Z,11.70
2019-04-16T07:04:35.034Z,11.83
2019-04-16T07:05:35.050Z,11.86
2019-04-16T07:06:36.313Z,12.12
2019-04-16T07:07:39.823Z,12.10
2019-04-16T07:08:38.091Z,12.21
2019-04-16T07:09:41.477Z,12.29
2019-04-16T07:10:44.405Z,12.35
2019-04-16T07:11:35.164Z,12.43
2019-04-16T07:12:38.657Z,12.55
2019-04-16T07:13:35.199Z,12.63
2019-04-16T07:14:36.182Z,12.66
2019-04-16T07:15:35.241Z,12.78
2019-04-16T07:16:35.258Z,12.73
2019-04-16T07:17:35.304Z,12.78
2019-04-16T07:18:35.542Z,12.86
2019-04-16T07:19:35.396Z,12.84
2019-04-16T07:20:35.382Z,12.73
2019-04-16T07:21:35.381Z,12.70
2019-04-16T07:22:35.430Z,12.75
2019-04-16T07:23:35.557Z,12.69
2019-04-16T07:24:37.012Z,12.83
2019-04-16T07:25:40.362Z,12.98
2019-04-16T07:26:38.894Z,12.94
2019-04-16T07:27:38.368Z,12.99
2019-04-16T07:28:35.581Z,13.13
2019-04-16T07:29:35.596Z,13.16
2019-04-16T07:30:38.469Z,13.28
2019-04-16T07:31:35.567Z,13.31
2019-04-16T07:32:35.575Z,13.43
2019-04-16T07:33:35.595Z,13.55
2019-04-16T07:34:35.616Z,13.64
2019-04-16T07:35:35.634Z,13.80
2019-04-16T07:36:35.657Z,13.93
2019-04-16T07:37:35.676Z,13.85
2019-04-16T07:38:36.079Z,13.98
2019-04-16T07:39:37.243Z,13.95
2019-04-16T07:40:35.738Z,14.03
2019-04-16T07:41:35.756Z,14.12
2019-04-16T07:42:35.785Z,14.26
2019-04-16T07:43:35.800Z,14.33
2019-04-16T07:44:36.546Z,14.34
2019-04-16T07:45:35.844Z,14.41
2019-04-16T07:46:35.864Z,14.44
2019-04-16T07:47:35.886Z,14.34
2019-04-16T07:48:35.911Z,14.37
2019-04-16T07:49:35.928Z,14.48
2019-04-16T07:50:35.951Z,14.56
2019-04-16T07:51:36.652Z,14.53
2019-04-16T07:52:36.013Z,14.66
2019-04-16T07:53:36.018Z,14.71
2019-04-16T07:54:36.042Z,14.77
2019-04-16T07:55:36.056Z,14.77
2019-04-16T07:56:36.078Z,14.92
2019-04-16T07:57:36.117Z,14.94
2019-04-16T07:58:36.123Z,14.99
2019-04-16T07:59:36.143Z,14.97
2019-04-16T08:00:40.287Z,14.93
2019-04-16T08:01:36.192Z,14.97
2019-04-16T08:02:36.214Z,14.71
2019-04-16T08:03:36.241Z,14.56
2019-04-16T08:04:36.483Z,14.33
2019-04-16T08:05:37.783Z,14.20
2019-04-16T08:06:36.301Z,13.95
2019-04-16T08:07:36.322Z,13.80
2019-04-16T08:08:36.341Z,13.65
2019-04-16T08:09:36.363Z,13.50
2019-04-16T08:10:36.384Z,13.39
2019-04-16T08:11:36.402Z,13.12
2019-04-16T08:12:36.423Z,13.20
2019-04-16T08:13:36.444Z,13.03
2019-04-16T08:14:36.465Z,12.94
2019-04-16T08:15:36.484Z,12.91
2019-04-16T08:16:47.069Z,12.83
2019-04-16T08:17:36.526Z,12.86
2019-04-16T08:18:36.545Z,12.75
2019-04-16T08:19:37.489Z,12.68
2019-04-16T08:20:36.585Z,12.65
2019-04-16T08:21:36.604Z,12.62
2019-04-16T08:22:39.693Z,12.57
2019-04-16T08:23:39.093Z,12.50
2019-04-16T08:24:36.661Z,12.37
2019-04-16T08:25:36.681Z,12.39
2019-04-16T08:26:36.701Z,12.39
2019-04-16T08:27:36.727Z,12.36
2019-04-16T08:28:36.739Z,12.29
2019-04-16T08:29:36.759Z,12.25
2019-04-16T08:30:39.318Z,12.23
2019-04-16T08:31:36.796Z,12.26
2019-04-16T08:32:36.816Z,12.18
2019-04-16T08:33:36.843Z,12.26
2019-04-16T08:34:36.855Z,12.15
2019-04-16T08:35:36.872Z,12.20
2019-04-16T08:36:36.889Z,12.20
2019-04-16T08:37:48.253Z,12.25
2019-04-16T08:38:36.934Z,12.18
2019-04-16T08:39:39.660Z,12.28
2019-04-16T08:40:36.966Z,12.23
2019-04-16T08:41:36.988Z,12.15
2019-04-16T08:42:44.377Z,12.18
2019-04-16T08:43:37.023Z,12.28
2019-04-16T08:44:37.042Z,12.14
2019-04-16T08:45:39.920Z,12.23
2019-04-16T08:46:40.153Z,12.25
2019-04-16T08:47:37.098Z,12.20
2019-04-16T08:48:37.117Z,12.23
2019-04-16T08:49:37.136Z,12.30
2019-04-16T08:50:37.155Z,12.30
2019-04-16T08:51:37.890Z,12.35
2019-04-16T08:52:38.562Z,12.35
2019-04-16T08:53:37.272Z,12.36
2019-04-16T08:54:37.265Z,12.37
2019-04-16T08:55:37.329Z,12.43
2019-04-16T08:56:37.332Z,12.40
2019-04-16T08:57:37.329Z,12.43
2019-04-16T08:58:38.371Z,12.44
2019-04-16T08:59:39.505Z,12.55
2019-04-16T09:00:37.341Z,12.51
2019-04-16T09:01:37.419Z,12.55
2019-04-16T09:02:37.379Z,12.68
2019-04-16T09:03:37.398Z,12.69
2019-04-16T09:04:37.418Z,12.69
2019-04-16T09:05:41.290Z,12.72
2019-04-16T09:06:37.456Z,12.76
2019-04-16T09:07:37.470Z,12.75
2019-04-16T09:08:37.491Z,12.72
2019-04-16T09:09:37.511Z,12.75
2019-04-16T09:10:37.529Z,12.83
2019-04-16T09:11:37.546Z,12.81
2019-04-16T09:12:41.343Z,12.81
2019-04-16T09:13:40.903Z,12.81
2019-04-16T09:14:37.605Z,12.83
2019-04-16T09:15:37.622Z,12.88
2019-04-16T09:16:37.642Z,12.90
2019-04-16T09:17:37.661Z,12.93
2019-04-16T09:18:37.679Z,12.91
2019-04-16T09:19:37.699Z,12.93
2019-04-16T09:20:38.487Z,12.98
2019-04-16T09:21:40.656Z,13.02
2019-04-16T09:22:48.047Z,13.01
2019-04-16T09:23:37.778Z,13.01
2019-04-16T09:24:41.463Z,13.03
2019-04-16T09:25:37.814Z,13.06
2019-04-16T09:26:37.832Z,13.02
2019-04-16T09:27:37.850Z,13.16
2019-04-16T09:28:37.870Z,13.13
2019-04-16T09:29:39.124Z,13.16
2019-04-16T09:30:37.908Z,13.16
2019-04-16T09:31:37.925Z,13.23
2019-04-16T09:32:37.946Z,13.27
2019-04-16T09:33:37.967Z,13.26
2019-04-16T09:34:39.607Z,13.30
2019-04-16T09:35:38.004Z,13.42
2019-04-16T09:36:38.026Z,13.40
2019-04-16T09:37:38.041Z,13.47
2019-04-16T09:38:38.061Z,13.46
2019-04-16T09:39:38.080Z,13.54
2019-04-16T09:40:38.099Z,13.57
2019-04-16T09:41:38.119Z,13.50
2019-04-16T09:42:38.136Z,13.57
2019-04-16T09:43:40.295Z,13.60
2019-04-16T09:44:38.177Z,13.60
2019-04-16T09:45:38.202Z,13.65
2019-04-16T09:46:52.330Z,13.62
2019-04-16T09:47:38.235Z,13.62
2019-04-16T09:48:38.252Z,13.68
2019-04-16T09:49:38.407Z,13.73
2019-04-16T09:50:42.923Z,13.85
2019-04-16T09:51:38.315Z,13.89
2019-04-16T09:52:38.328Z,13.79
2019-04-16T09:53:40.260Z,13.85
2019-04-16T09:54:38.367Z,13.89
2019-04-16T09:55:38.388Z,13.91
2019-04-16T09:56:38.407Z,13.87
2019-04-16T09:57:38.425Z,13.97
2019-04-16T09:58:42.355Z,13.98
2019-04-16T09:59:38.465Z,13.95
2019-04-16T10:00:38.484Z,14.03
2019-04-16T10:01:38.503Z,14.01
2019-04-16T10:02:38.523Z,14.04
2019-04-16T10:03:38.540Z,14.07
2019-04-16T10:04:38.560Z,14.07
2019-04-16T10:05:38.581Z,14.16
2019-04-16T10:06:38.602Z,14.20
2019-04-16T10:07:40.275Z,14.15
2019-04-16T10:08:38.654Z,14.31
2019-04-16T10:09:38.663Z,14.23
2019-04-16T10:10:38.695Z,14.34
2019-04-16T10:11:38.701Z,14.38
2019-04-16T10:12:38.733Z,14.34
2019-04-16T10:13:38.762Z,14.48
2019-04-16T10:14:38.785Z,14.45
2019-04-16T10:15:38.777Z,14.37
2019-04-16T10:16:38.795Z,14.45
2019-04-16T10:17:38.834Z,14.37
2019-04-16T10:18:38.854Z,14.45
2019-04-16T10:19:42.991Z,14.44
2019-04-16T10:20:40.344Z,14.55
2019-04-16T10:21:38.899Z,14.53
2019-04-16T10:22:38.918Z,14.61
2019-04-16T10:23:38.939Z,14.71
2019-04-16T10:24:38.957Z,14.66
2019-04-16T10:25:38.981Z,14.78
2019-04-16T10:26:39.013Z,14.78
2019-04-16T10:27:39.026Z,14.96
2019-04-16T10:28:39.071Z,15.10
2019-04-16T10:29:39.133Z,15.08
2019-04-16T10:30:39.148Z,15.27
2019-04-16T10:31:39.177Z,15.33
2019-04-16T10:32:39.204Z,15.55
2019-04-16T10:33:39.241Z,15.81
2019-04-16T10:34:39.210Z,15.84
2019-04-16T10:35:39.205Z,16.02
2019-04-16T10:36:39.226Z,16.16
2019-04-16T10:37:39.313Z,16.24
2019-04-16T10:38:39.273Z,16.32
2019-04-16T10:39:39.304Z,16.36
2019-04-16T10:40:39.346Z,16.49
2019-04-16T10:41:39.346Z,16.68
2019-04-16T10:42:39.386Z,16.73
2019-04-16T10:43:44.911Z,16.91
2019-04-16T10:44:39.441Z,17.23
2019-04-16T10:45:39.446Z,17.54
2019-04-16T10:46:39.652Z,17.72
2019-04-16T10:47:39.527Z,17.84
2019-04-16T10:48:39.523Z,17.95
2019-04-16T10:49:39.580Z,18.27
2019-04-16T10:50:39.583Z,18.52
2019-04-16T10:51:39.711Z,18.88
2019-04-16T10:52:39.637Z,18.88
2019-04-16T10:53:39.679Z,19.08
2019-04-16T10:54:39.693Z,19.23
2019-04-16T10:55:39.744Z,19.41
2019-04-16T10:56:39.761Z,19.56
2019-04-16T10:57:39.783Z,19.77
2019-04-16T10:58:39.817Z,20.00
2019-04-16T10:59:39.862Z,20.36
2019-04-16T11:00:39.874Z,20.60
2019-04-16T11:01:39.908Z,20.82
2019-04-16T11:02:39.946Z,21.05
2019-04-16T11:03:39.970Z,21.26
2019-04-16T11:04:43.030Z,21.54
2019-04-16T11:05:40.027Z,21.69
2019-04-16T11:06:40.051Z,21.91
2019-04-16T11:07:40.091Z,22.21
2019-04-16T11:08:40.113Z,22.41
2019-04-16T11:09:40.176Z,22.67
2019-04-16T11:10:40.189Z,22.83
2019-04-16T11:11:40.208Z,22.99
2019-04-16T11:12:40.373Z,22.99
2019-04-16T11:13:40.289Z,22.92
2019-04-16T11:14:40.305Z,23.04
2019-04-16T11:15:40.337Z,23.20
2019-04-16T11:16:40.372Z,23.40
2019-04-16T11:17:40.403Z,23.34
2019-04-16T11:18:40.434Z,23.40
2019-04-16T11:19:40.472Z,23.33
2019-04-16T11:20:40.499Z,23.39
2019-04-16T11:21:40.538Z,23.25
2019-04-16T11:22:40.565Z,23.34
2019-04-16T11:23:40.614Z,23.37
2019-04-16T11:24:40.653Z,23.33
2019-04-16T11:25:40.662Z,23.40
2019-04-16T11:26:44.175Z,23.36
2019-04-16T11:27:40.731Z,23.34
2019-04-16T11:28:40.762Z,23.42
2019-04-16T11:29:42.023Z,23.67
2019-04-16T11:30:40.861Z,23.73
2019-04-16T11:31:40.883Z,23.89
2019-04-16T11:32:40.885Z,23.79
2019-04-16T11:33:40.921Z,23.95
2019-04-16T11:34:40.953Z,24.07
2019-04-16T11:35:41.054Z,23.95
2019-04-16T11:36:41.107Z,24.01
2019-04-16T11:37:43.618Z,24.06
2019-04-16T11:38:41.216Z,24.03
2019-04-16T11:39:41.165Z,24.13
2019-04-16T11:40:41.418Z,24.18
2019-04-16T11:41:41.177Z,24.24
2019-04-16T11:42:41.241Z,24.19
2019-04-16T11:43:41.261Z,24.44
2019-04-16T11:44:41.287Z,24.40
2019-04-16T11:45:41.309Z,24.56
2019-04-16T11:46:41.371Z,24.69
2019-04-16T11:47:41.400Z,24.53
2019-04-16T11:48:41.444Z,24.65
2019-04-16T11:49:41.478Z,24.99
2019-04-16T11:50:41.476Z,25.09
2019-04-16T11:51:41.518Z,25.19
2019-04-16T11:52:41.574Z,25.30
2019-04-16T11:53:41.576Z,25.30
2019-04-16T11:54:46.726Z,25.41
2019-04-16T11:55:41.658Z,25.63
2019-04-16T11:56:41.677Z,25.70
2019-04-16T11:57:41.706Z,25.83
2019-04-16T11:58:41.781Z,25.86
2019-04-16T11:59:41.805Z,25.89
2019-04-16T12:00:41.806Z,25.88
2019-04-16T12:01:41.867Z,25.81
2019-04-16T12:02:41.881Z,25.85
2019-04-16T12:03:41.948Z,25.92
2019-04-16T12:04:41.947Z,25.83
2019-04-16T12:05:42.017Z,25.70
2019-04-16T12:06:42.029Z,25.70
2019-04-16T12:07:42.133Z,25.59
2019-04-16T12:08:42.077Z,25.63
2019-04-16T12:09:42.110Z,25.86
2019-04-16T12:10:42.165Z,25.86
2019-04-16T12:11:42.177Z,25.77
2019-04-16T12:12:42.256Z,25.81
2019-04-16T12:13:42.335Z,25.68
2019-04-16T12:14:43.292Z,25.40
2019-04-16T12:15:42.322Z,25.40
2019-04-16T12:16:42.346Z,25.34
2019-04-16T12:17:42.396Z,25.31
2019-04-16T12:18:42.413Z,25.39
2019-04-16T12:19:44.831Z,25.31
2019-04-16T12:20:42.508Z,25.31
2019-04-16T12:21:42.523Z,25.24
2019-04-16T12:22:42.561Z,25.14
2019-04-16T12:23:42.587Z,25.24
2019-04-16T12:24:42.613Z,25.33
2019-04-16T12:25:42.647Z,25.40
2019-04-16T12:26:42.677Z,25.46
2019-04-16T12:27:42.721Z,25.43
2019-04-16T12:28:43.452Z,25.39
2019-04-16T12:29:42.779Z,25.56
2019-04-16T12:30:42.810Z,25.56
2019-04-16T12:31:42.850Z,25.44
2019-04-16T12:32:42.913Z,25.16
2019-04-16T12:33:42.942Z,24.86
2019-04-16T12:34:43.004Z,24.69
2019-04-16T12:35:45.355Z,24.37
2019-04-16T12:36:43.067Z,24.10
2019-04-16T12:37:43.060Z,23.91
2019-04-16T12:38:43.153Z,23.64
2019-04-16T12:39:43.110Z,23.34
2019-04-16T12:40:43.165Z,23.08
2019-04-16T12:41:43.181Z,22.81
2019-04-16T12:42:43.227Z,22.55
2019-04-16T12:43:43.229Z,22.34
2019-04-16T12:44:45.751Z,22.23
2019-04-16T12:45:43.312Z,22.06
2019-04-16T12:46:43.317Z,21.83
2019-04-16T12:47:43.477Z,21.58
2019-04-16T12:48:43.375Z,21.47
2019-04-16T12:49:43.420Z,21.28
2019-04-16T12:50:43.449Z,21.19
2019-04-16T12:51:43.496Z,20.92
2019-04-16T12:52:43.482Z,20.82
2019-04-16T12:53:43.563Z,20.63
2019-04-16T12:54:43.557Z,20.37
2019-04-16T12:55:43.609Z,20.00
2019-04-16T12:56:43.636Z,19.94
2019-04-16T12:57:46.894Z,19.81
2019-04-16T12:58:43.642Z,19.63
2019-04-16T12:59:43.668Z,19.44
2019-04-16T13:00:43.694Z,19.35
2019-04-16T13:01:43.717Z,19.32
2019-04-16T13:02:44.839Z,19.12
2019-04-16T13:03:46.349Z,19.05
2019-04-16T13:04:45.725Z,18.89
2019-04-16T13:05:44.701Z,18.91